Slotergracht — PDBP — position and weather

sailwx.info

Track history (hours):
 
Tides and Currents Weather Stations Pressure Air Temp Water Temp Dewpoint Dewpoint Depression Visibility Wind Speed Wind Dir Waves Ship Positions

Slotergracht

Last reported at 2015-Aug-28 18:31 UTC. Time now 2015-Aug-28 19:16 UTC.
Position N 54°23' E 018°40'.

Length 168 m; beam 25 m.

Type: Cargo ship. MMSI: 246456000.

Date/timePositionNaut miles runAvg speedWind from/ knotsBaromVisibWave heightAir tempDewpointWater temp
2015-Aug-28 18:31N 54°23' E 018°40'0 0.0
2015-Aug-28 17:31N 54°23' E 018°40'0 0.0
2015-Aug-28 16:31N 54°23' E 018°40'0 0.0
2015-Aug-28 15:31N 54°23' E 018°40'0 0.0
2015-Aug-28 14:31N 54°23' E 018°40'0 0.0
2015-Aug-28 13:31N 54°23' E 018°40'0 0.0
2015-Aug-28 12:31N 54°23' E 018°40'0 0.0
2015-Aug-28 11:31N 54°23' E 018°40'0 0.0
2015-Aug-28 10:28N 54°23' E 018°40'0 0.0
2015-Aug-28 09:31N 54°23' E 018°40'0 0.0
2015-Aug-28 08:31N 54°23' E 018°40'0 0.0
2015-Aug-28 07:31N 54°23' E 018°40'0 0.0
2015-Aug-28 06:31N 54°23' E 018°40'0 0.0
2015-Aug-28 05:28N 54°23' E 018°40'0 0.0
2015-Aug-28 04:28N 54°23' E 018°40'0 0.0
2015-Aug-28 03:31N 54°23' E 018°40'0 0.0
2015-Aug-28 02:31N 54°23' E 018°40'0 0.0
2015-Aug-28 01:25N 54°23' E 018°40'0 0.0
2015-Aug-28 00:28N 54°23' E 018°40'0 0.0
2015-Aug-27 23:28N 54°23' E 018°40'0 0.0
2015-Aug-27 22:31N 54°23' E 018°40'0 0.0
2015-Aug-27 21:31N 54°23' E 018°40'0 0.0
2015-Aug-27 20:31N 54°23' E 018°40'0 0.0
2015-Aug-27 19:31N 54°23' E 018°40'0 0.0
2015-Aug-27 18:34N 54°23' E 018°40'0 0.0
2015-Aug-27 17:30N 54°23' E 018°40'0 0.0
2015-Aug-27 16:33N 54°23' E 018°40'0 0.0
2015-Aug-27 15:33N 54°23' E 018°40'0 0.0
2015-Aug-27 14:33N 54°23' E 018°40'0 0.0
2015-Aug-27 13:33N 54°23' E 018°40'0 0.0
2015-Aug-27 10:33N 54°23' E 018°40'0 0.0
2015-Aug-27 09:33N 54°23' E 018°40'0 0.0
2015-Aug-27 08:33N 54°23' E 018°40'0 0.0
2015-Aug-27 07:33N 54°23' E 018°40'0 0.0
2015-Aug-27 06:33N 54°23' E 018°40'0 0.4
2015-Aug-27 05:34N 54°23' E 018°40'5 4.8
2015-Aug-27 04:34N 54°28' E 018°41'9 9.0
2015-Aug-27 03:34N 54°35' E 018°51'7 6.7
2015-Aug-27 02:34N 54°41' E 018°57'7 6.8
2015-Aug-27 01:34N 54°47' E 019°01'1010.5
2015-Aug-27 00:34N 54°57' E 019°02'1111.4
2015-Aug-26 23:34N 55°09' E 019°05'1211.7
2015-Aug-26 22:33N 55°20' E 019°07'1211.9
2015-Aug-26 21:33N 55°32' E 019°09'1311.9
2015-Aug-26 20:29N 55°45' E 019°11'1112.1
2015-Aug-26 19:33N 55°56' E 019°13'  
2015-Aug-21 12:25N 58°29' E 018°59'5317.9
2015-Aug-21 09:28N 57°44' E 018°08'1618.0
2015-Aug-21 08:33N 57°30' E 017°53'1818.2
2015-Aug-21 07:33N 57°13' E 017°38'1817.9
2015-Aug-21 06:33N 56°57' E 017°26'3617.8
2015-Aug-21 04:34N 56°24' E 017°02'1817.7
2015-Aug-21 03:33N 56°07' E 016°50'3517.4
2015-Aug-21 01:33N 55°49' E 015°58'1817.6
2015-Aug-21 00:32N 55°40' E 015°30'1717.7
2015-Aug-20 23:33N 55°31' E 015°03'1717.5
2015-Aug-20 22:34N 55°22' E 014°37'1817.7
2015-Aug-20 21:34N 55°08' E 014°18'1716.9
2015-Aug-20 20:33N 54°59' E 013°54'1717.2
2015-Aug-20 19:33N 54°53' E 013°25'1717.4
2015-Aug-20 18:34N 54°48' E 012°57'1616.3
2015-Aug-20 17:33N 54°41' E 012°31'1615.8
2015-Aug-20 16:33N 54°29' E 012°13'1514.6
2015-Aug-20 15:33N 54°25' E 011°49'1616.2
2015-Aug-20 14:33N 54°31' E 011°24'1616.0
2015-Aug-20 13:33N 54°36' E 010°58'1312.8
2015-Aug-20 12:34N 54°48' E 010°50'1615.5
2015-Aug-20 11:32N 55°03' E 010°60'4715.5
2015-Aug-20 08:29N 55°50' E 010°49'1516.2
2015-Aug-20 07:33N 56°02' E 011°05'1716.8
2015-Aug-20 06:32N 56°17' E 011°21'1717.4
2015-Aug-20 05:33N 56°31' E 011°37'1717.2
2015-Aug-20 04:33N 56°47' E 011°51'1616.4
2015-Aug-20 03:33N 57°02' E 011°41'1716.8
2015-Aug-20 02:33N 57°18' E 011°30'1615.8
2015-Aug-20 01:33N 57°33' E 011°36'3 3.0
2015-Aug-20 00:33N 57°35' E 011°41'0 0.0
2015-Aug-19 23:33N 57°35' E 011°41'0 0.1
2015-Aug-19 22:33N 57°35' E 011°41'0 0.1
2015-Aug-19 21:33N 57°35' E 011°41'0 0.0
2015-Aug-19 20:33N 57°35' E 011°41'1 1.1
2015-Aug-19 19:33N 57°35' E 011°39'1515.3
2015-Aug-19 18:33N 57°41' E 011°13'1717.1
2015-Aug-19 17:33N 57°48' E 010°44'28317.5
2015-Aug-19 01:20N 54°13' E 005°14'1418.1
2015-Aug-19 00:33N 53°60' E 005°06'1918.2
2015-Aug-18 23:30N 53°42' E 004°54'1718.2
2015-Aug-18 22:33N 53°26' E 004°43'  
Track history (hours):
 
Tides and Currents Weather Stations Pressure Air Temp Water Temp Dewpoint Dewpoint Depression Visibility Wind Speed Wind Dir Waves Ship Positions

Slotergracht

Last reported at 2015-Aug-28 18:31 UTC. Time now 2015-Aug-28 19:16 UTC.
Position N 54°23' E 018°40'.

Length 168 m; beam 25 m.

Type: Cargo ship. MMSI: 246456000.

Date/timePositionNaut miles runAvg speedWind from/ knotsBaromVisibWave heightAir tempDewpointWater temp
2015-Aug-28 18:31N 54°23' E 018°40'0 0.0
2015-Aug-28 17:31N 54°23' E 018°40'0 0.0
2015-Aug-28 16:31N 54°23' E 018°40'0 0.0
2015-Aug-28 15:31N 54°23' E 018°40'0 0.0
2015-Aug-28 14:31N 54°23' E 018°40'0 0.0
2015-Aug-28 13:31N 54°23' E 018°40'0 0.0
2015-Aug-28 12:31N 54°23' E 018°40'0 0.0
2015-Aug-28 11:31N 54°23' E 018°40'0 0.0
2015-Aug-28 10:28N 54°23' E 018°40'0 0.0
2015-Aug-28 09:31N 54°23' E 018°40'0 0.0
2015-Aug-28 08:31N 54°23' E 018°40'0 0.0
2015-Aug-28 07:31N 54°23' E 018°40'0 0.0
2015-Aug-28 06:31N 54°23' E 018°40'0 0.0
2015-Aug-28 05:28N 54°23' E 018°40'0 0.0
2015-Aug-28 04:28N 54°23' E 018°40'0 0.0
2015-Aug-28 03:31N 54°23' E 018°40'0 0.0
2015-Aug-28 02:31N 54°23' E 018°40'0 0.0
2015-Aug-28 01:25N 54°23' E 018°40'0 0.0
2015-Aug-28 00:28N 54°23' E 018°40'0 0.0
2015-Aug-27 23:28N 54°23' E 018°40'0 0.0
2015-Aug-27 22:31N 54°23' E 018°40'0 0.0
2015-Aug-27 21:31N 54°23' E 018°40'0 0.0
2015-Aug-27 20:31N 54°23' E 018°40'0 0.0
2015-Aug-27 19:31N 54°23' E 018°40'0 0.0
2015-Aug-27 18:34N 54°23' E 018°40'0 0.0
2015-Aug-27 17:30N 54°23' E 018°40'0 0.0
2015-Aug-27 16:33N 54°23' E 018°40'0 0.0
2015-Aug-27 15:33N 54°23' E 018°40'0 0.0
2015-Aug-27 14:33N 54°23' E 018°40'0 0.0
2015-Aug-27 13:33N 54°23' E 018°40'0 0.0
2015-Aug-27 10:33N 54°23' E 018°40'0 0.0
2015-Aug-27 09:33N 54°23' E 018°40'0 0.0
2015-Aug-27 08:33N 54°23' E 018°40'0 0.0
2015-Aug-27 07:33N 54°23' E 018°40'0 0.0
2015-Aug-27 06:33N 54°23' E 018°40'0 0.4
2015-Aug-27 05:34N 54°23' E 018°40'5 4.8
2015-Aug-27 04:34N 54°28' E 018°41'9 9.0
2015-Aug-27 03:34N 54°35' E 018°51'7 6.7
2015-Aug-27 02:34N 54°41' E 018°57'7 6.8
2015-Aug-27 01:34N 54°47' E 019°01'1010.5
2015-Aug-27 00:34N 54°57' E 019°02'1111.4
2015-Aug-26 23:34N 55°09' E 019°05'1211.7
2015-Aug-26 22:33N 55°20' E 019°07'1211.9
2015-Aug-26 21:33N 55°32' E 019°09'1311.9
2015-Aug-26 20:29N 55°45' E 019°11'1112.1
2015-Aug-26 19:33N 55°56' E 019°13'  
2015-Aug-21 12:25N 58°29' E 018°59'5317.9
2015-Aug-21 09:28N 57°44' E 018°08'1618.0
2015-Aug-21 08:33N 57°30' E 017°53'1818.2
2015-Aug-21 07:33N 57°13' E 017°38'1817.9
2015-Aug-21 06:33N 56°57' E 017°26'3617.8
2015-Aug-21 04:34N 56°24' E 017°02'1817.7
2015-Aug-21 03:33N 56°07' E 016°50'3517.4
2015-Aug-21 01:33N 55°49' E 015°58'1817.6
2015-Aug-21 00:32N 55°40' E 015°30'1717.7
2015-Aug-20 23:33N 55°31' E 015°03'1717.5
2015-Aug-20 22:34N 55°22' E 014°37'1817.7
2015-Aug-20 21:34N 55°08' E 014°18'1716.9
2015-Aug-20 20:33N 54°59' E 013°54'1717.2
2015-Aug-20 19:33N 54°53' E 013°25'1717.4
2015-Aug-20 18:34N 54°48' E 012°57'1616.3
2015-Aug-20 17:33N 54°41' E 012°31'1615.8
2015-Aug-20 16:33N 54°29' E 012°13'1514.6
2015-Aug-20 15:33N 54°25' E 011°49'1616.2
2015-Aug-20 14:33N 54°31' E 011°24'1616.0
2015-Aug-20 13:33N 54°36' E 010°58'1312.8
2015-Aug-20 12:34N 54°48' E 010°50'1615.5
2015-Aug-20 11:32N 55°03' E 010°60'4715.5
2015-Aug-20 08:29N 55°50' E 010°49'1516.2
2015-Aug-20 07:33N 56°02' E 011°05'1716.8
2015-Aug-20 06:32N 56°17' E 011°21'1717.4
2015-Aug-20 05:33N 56°31' E 011°37'1717.2
2015-Aug-20 04:33N 56°47' E 011°51'1616.4
2015-Aug-20 03:33N 57°02' E 011°41'1716.8
2015-Aug-20 02:33N 57°18' E 011°30'1615.8
2015-Aug-20 01:33N 57°33' E 011°36'3 3.0
2015-Aug-20 00:33N 57°35' E 011°41'0 0.0
2015-Aug-19 23:33N 57°35' E 011°41'0 0.1
2015-Aug-19 22:33N 57°35' E 011°41'0 0.1
2015-Aug-19 21:33N 57°35' E 011°41'0 0.0
2015-Aug-19 20:33N 57°35' E 011°41'1 1.1
2015-Aug-19 19:33N 57°35' E 011°39'1515.3
2015-Aug-19 18:33N 57°41' E 011°13'1717.1
2015-Aug-19 17:33N 57°48' E 010°44'28317.5
2015-Aug-19 01:20N 54°13' E 005°14'1418.1
2015-Aug-19 00:33N 53°60' E 005°06'1918.2
2015-Aug-18 23:30N 53°42' E 004°54'1718.2
2015-Aug-18 22:33N 53°26' E 004°43'  

Dump ship's entire track history